Terminal Aerodrome Forecast
Issued by NWS Twin Cities, MN

Home | Current Version | Previous Version | Graphics & Text | Print | Product List | Glossary On
Versions: 1 2 3 4 5 6 7 8 9 10 11 12 13 14 15
947
FTUS43 KMPX 290926 AAA
TAFSTC
TAF AMD
KSTC 290926Z 2909/3006 00000KT 6SM BR BKN110
      TEMPO 2909/2913 1SM BR SCT004
     FM291500 06006KT P6SM SCT050 BKN100=

USA.gov is the U.S. government's official web portal to all federal, state and local government web resources and services.